Careacu, Brazil
Current Conditions -  °F | °C
As of 10:00 AM on Monday 24 Nov 2014 (Local Time) from SBGW Reporting Station
Haze Haze  
Wind Chill: 73°   Ceiling: 2000
Heat Index: 73°   Visibility: 3mi
Dew Point: 66°   Wind: 6mph
Humidity: 78%   Direction: 40°NE
Pressure: 30.06"   Gusts: NA
Location:  22.04°S, 45.7°W
Report Text: SBGW 241200Z 04005KT 5000 HZ FEW009 BKN020 BKN050 23/19 Q1018
Loading
Personal Weather Stations






























Interactive Weather Map New forecast layout! Learn more

10-Day Weather Forecast

Advertisements
Track Severe Weather on mobile